sensor_id;sensor_type;location;lat;lon;timestamp;noise_LAeq;noise_LA_min;noise_LA_max;noise_LA01;noise_LA95
186;Laerm;55473;48.800;9.002;2023-02-28T00:00:37;39.36;32.89;50.71;;
186;Laerm;55473;48.800;9.002;2023-02-28T00:03:03;35.00;32.85;41.75;;
186;Laerm;55473;48.800;9.002;2023-02-28T00:05:29;34.88;32.90;40.89;;
186;Laerm;55473;48.800;9.002;2023-02-28T00:07:59;36.04;33.30;41.94;;
186;Laerm;55473;48.800;9.002;2023-02-28T00:10:53;35.52;32.47;50.44;;
186;Laerm;55473;48.800;9.002;2023-02-28T00:13:22;39.62;34.24;52.02;;
186;Laerm;55473;48.800;9.002;2023-02-28T00:16:05;36.36;34.00;48.53;;
186;Laerm;55473;48.800;9.002;2023-02-28T00:18:33;36.89;34.15;41.89;;
186;Laerm;55473;48.800;9.002;2023-02-28T00:20:59;37.79;33.70;51.45;;
186;Laerm;55473;48.800;9.002;2023-02-28T00:23:26;37.00;32.87;46.65;;
186;Laerm;55473;48.800;9.002;2023-02-28T00:25:53;34.30;32.46;35.90;;
186;Laerm;55473;48.800;9.002;2023-02-28T00:28:19;34.77;32.56;38.88;;
186;Laerm;55473;48.800;9.002;2023-02-28T00:30:46;34.95;32.77;37.54;;
186;Laerm;55473;48.800;9.002;2023-02-28T00:33:12;36.43;32.97;43.26;;
186;Laerm;55473;48.800;9.002;2023-02-28T00:35:38;34.96;32.87;44.91;;
186;Laerm;55473;48.800;9.002;2023-02-28T00:38:04;34.53;33.00;36.44;;
186;Laerm;55473;48.800;9.002;2023-02-28T00:40:30;34.49;32.58;36.93;;
186;Laerm;55473;48.800;9.002;2023-02-28T00:42:56;34.63;32.69;37.23;;
186;Laerm;55473;48.800;9.002;2023-02-28T00:45:22;35.14;32.97;38.68;;
186;Laerm;55473;48.800;9.002;2023-02-28T00:47:48;35.13;32.98;40.08;;
186;Laerm;55473;48.800;9.002;2023-02-28T00:50:20;35.62;33.00;45.63;;
186;Laerm;55473;48.800;9.002;2023-02-28T00:52:47;34.75;32.87;37.81;;
186;Laerm;55473;48.800;9.002;2023-02-28T00:55:13;34.55;32.72;42.20;;
186;Laerm;55473;48.800;9.002;2023-02-28T00:57:39;34.53;32.65;39.52;;
186;Laerm;55473;48.800;9.002;2023-02-28T01:00:07;34.37;32.85;36.43;;
186;Laerm;55473;48.800;9.002;2023-02-28T01:02:33;34.33;32.48;36.47;;
186;Laerm;55473;48.800;9.002;2023-02-28T01:04:59;34.59;32.68;38.31;;
186;Laerm;55473;48.800;9.002;2023-02-28T01:07:25;36.66;32.72;45.97;;
186;Laerm;55473;48.800;9.002;2023-02-28T01:09:51;34.87;32.79;39.90;;
186;Laerm;55473;48.800;9.002;2023-02-28T01:12:17;34.42;32.74;39.87;;
186;Laerm;55473;48.800;9.002;2023-02-28T01:14:43;34.35;32.17;36.22;;
186;Laerm;55473;48.800;9.002;2023-02-28T01:17:09;34.55;32.81;37.10;;
186;Laerm;55473;48.800;9.002;2023-02-28T01:19:35;34.52;32.43;41.23;;
186;Laerm;55473;48.800;9.002;2023-02-28T01:22:04;36.42;32.83;44.34;;
186;Laerm;55473;48.800;9.002;2023-02-28T01:24:30;44.08;39.65;55.12;;
186;Laerm;55473;48.800;9.002;2023-02-28T01:26:56;44.68;40.62;56.35;;
186;Laerm;55473;48.800;9.002;2023-02-28T01:29:22;47.41;41.16;59.60;;
186;Laerm;55473;48.800;9.002;2023-02-28T01:31:48;42.84;40.49;45.99;;
186;Laerm;55473;48.800;9.002;2023-02-28T01:34:14;42.68;40.27;44.41;;
186;Laerm;55473;48.800;9.002;2023-02-28T01:36:40;42.57;39.77;44.30;;
186;Laerm;55473;48.800;9.002;2023-02-28T01:39:06;42.36;39.82;44.41;;
186;Laerm;55473;48.800;9.002;2023-02-28T01:41:34;42.43;39.91;45.13;;
186;Laerm;55473;48.800;9.002;2023-02-28T01:45:06;42.43;39.81;44.34;;
186;Laerm;55473;48.800;9.002;2023-02-28T01:47:43;42.31;39.92;44.24;;
186;Laerm;55473;48.800;9.002;2023-02-28T01:50:22;42.51;40.07;45.80;;
186;Laerm;55473;48.800;9.002;2023-02-28T01:52:50;42.95;35.42;49.39;;
186;Laerm;55473;48.800;9.002;2023-02-28T01:55:22;34.87;32.73;38.86;;
186;Laerm;55473;48.800;9.002;2023-02-28T01:57:56;34.74;32.76;36.94;;
186;Laerm;55473;48.800;9.002;2023-02-28T02:00:26;34.72;32.76;38.35;;
186;Laerm;55473;48.800;9.002;2023-02-28T02:03:01;34.57;32.91;37.14;;
186;Laerm;55473;48.800;9.002;2023-02-28T02:05:31;35.52;33.04;42.51;;
186;Laerm;55473;48.800;9.002;2023-02-28T02:08:06;34.53;32.89;36.65;;
186;Laerm;55473;48.800;9.002;2023-02-28T02:13:42;39.15;33.31;49.11;;
186;Laerm;55473;48.800;9.002;2023-02-28T02:45:23;34.98;32.87;40.14;;
186;Laerm;55473;48.800;9.002;2023-02-28T02:47:51;35.67;32.85;42.77;;
186;Laerm;55473;48.800;9.002;2023-02-28T02:50:37;34.98;32.54;39.89;;
186;Laerm;55473;48.800;9.002;2023-02-28T02:53:06;35.47;33.11;41.14;;
186;Laerm;55473;48.800;9.002;2023-02-28T02:55:38;35.33;33.04;40.67;;
186;Laerm;55473;48.800;9.002;2023-02-28T02:58:15;35.79;32.95;42.07;;
186;Laerm;55473;48.800;9.002;2023-02-28T03:00:49;35.12;33.03;39.12;;
186;Laerm;55473;48.800;9.002;2023-02-28T03:03:19;35.73;33.29;42.00;;
186;Laerm;55473;48.800;9.002;2023-02-28T03:06:00;35.25;32.92;38.86;;
186;Laerm;55473;48.800;9.002;2023-02-28T03:08:28;36.76;33.83;44.37;;
186;Laerm;55473;48.800;9.002;2023-02-28T03:11:02;35.86;33.95;40.01;;
186;Laerm;55473;48.800;9.002;2023-02-28T03:23:03;45.53;35.64;63.52;;
186;Laerm;55473;48.800;9.002;2023-02-28T03:26:28;43.05;36.53;59.36;;
186;Laerm;55473;48.800;9.002;2023-02-28T03:29:05;45.31;36.60;68.41;;
186;Laerm;55473;48.800;9.002;2023-02-28T03:34:34;36.09;33.72;43.50;;
186;Laerm;55473;48.800;9.002;2023-02-28T03:37:12;36.09;33.76;41.11;;
186;Laerm;55473;48.800;9.002;2023-02-28T03:40:00;42.52;34.02;65.11;;
186;Laerm;55473;48.800;9.002;2023-02-28T03:42:31;45.65;37.46;59.38;;
186;Laerm;55473;48.800;9.002;2023-02-28T03:45:10;47.44;38.54;61.37;;
186;Laerm;55473;48.800;9.002;2023-02-28T03:47:53;47.22;36.99;56.21;;
186;Laerm;55473;48.800;9.002;2023-02-28T03:50:48;48.60;38.65;57.82;;
186;Laerm;55473;48.800;9.002;2023-02-28T03:53:27;46.36;38.92;56.51;;
186;Laerm;55473;48.800;9.002;2023-02-28T03:56:22;47.00;42.20;65.21;;
186;Laerm;55473;48.800;9.002;2023-02-28T03:59:49;44.36;38.88;56.54;;
186;Laerm;55473;48.800;9.002;2023-02-28T04:02:07;45.91;39.25;59.02;;
186;Laerm;55473;48.800;9.002;2023-02-28T04:04:34;45.01;36.25;56.73;;
186;Laerm;55473;48.800;9.002;2023-02-28T04:07:08;39.93;36.11;60.85;;
186;Laerm;55473;48.800;9.002;2023-02-28T04:09:36;40.27;35.14;48.47;;
186;Laerm;55473;48.800;9.002;2023-02-28T04:12:03;41.65;34.20;53.61;;
186;Laerm;55473;48.800;9.002;2023-02-28T04:14:29;39.69;34.02;50.32;;
186;Laerm;55473;48.800;9.002;2023-02-28T04:16:55;44.95;36.50;55.26;;
186;Laerm;55473;48.800;9.002;2023-02-28T04:19:21;42.00;35.52;50.84;;
186;Laerm;55473;48.800;9.002;2023-02-28T04:21:52;39.96;34.79;51.27;;
186;Laerm;55473;48.800;9.002;2023-02-28T04:24:23;40.02;36.48;55.40;;
186;Laerm;55473;48.800;9.002;2023-02-28T04:26:54;39.77;35.97;59.86;;
186;Laerm;55473;48.800;9.002;2023-02-28T04:31:52;41.45;36.36;53.28;;
186;Laerm;55473;48.800;9.002;2023-02-28T04:34:20;41.35;37.34;56.88;;
186;Laerm;55473;48.800;9.002;2023-02-28T04:36:48;44.38;37.85;53.89;;
186;Laerm;55473;48.800;9.002;2023-02-28T04:39:19;43.06;37.91;52.86;;
186;Laerm;55473;48.800;9.002;2023-02-28T04:41:45;41.55;36.70;50.15;;
186;Laerm;55473;48.800;9.002;2023-02-28T04:44:12;43.87;37.16;59.48;;
186;Laerm;55473;48.800;9.002;2023-02-28T04:46:38;42.58;37.35;52.49;;
186;Laerm;55473;48.800;9.002;2023-02-28T04:49:03;45.32;37.71;58.58;;
186;Laerm;55473;48.800;9.002;2023-02-28T04:51:29;42.02;38.52;52.42;;
186;Laerm;55473;48.800;9.002;2023-02-28T04:53:56;44.50;38.27;60.73;;
186;Laerm;55473;48.800;9.002;2023-02-28T04:56:22;41.75;38.35;50.25;;
186;Laerm;55473;48.800;9.002;2023-02-28T04:58:49;46.56;38.82;62.28;;
186;Laerm;55473;48.800;9.002;2023-02-28T05:01:24;42.94;38.73;57.61;;
186;Laerm;55473;48.800;9.002;2023-02-28T05:03:54;52.65;40.11;80.28;;
186;Laerm;55473;48.800;9.002;2023-02-28T05:06:23;44.77;39.11;62.50;;
186;Laerm;55473;48.800;9.002;2023-02-28T05:08:50;48.19;40.74;63.78;;
186;Laerm;55473;48.800;9.002;2023-02-28T05:11:25;54.41;41.14;82.72;;
186;Laerm;55473;48.800;9.002;2023-02-28T05:13:52;49.29;39.83;72.22;;
186;Laerm;55473;48.800;9.002;2023-02-28T05:16:19;55.71;39.91;72.27;;
186;Laerm;55473;48.800;9.002;2023-02-28T05:18:46;54.09;39.38;69.33;;
186;Laerm;55473;48.800;9.002;2023-02-28T05:24:00;53.87;39.14;70.30;;
186;Laerm;55473;48.800;9.002;2023-02-28T05:26:27;53.40;40.03;71.94;;
186;Laerm;55473;48.800;9.002;2023-02-28T05:28:53;50.19;40.40;64.88;;
186;Laerm;55473;48.800;9.002;2023-02-28T05:31:20;51.39;40.16;70.70;;
186;Laerm;55473;48.800;9.002;2023-02-28T05:33:46;49.01;41.77;62.99;;
186;Laerm;55473;48.800;9.002;2023-02-28T05:36:13;49.82;40.05;65.98;;
186;Laerm;55473;48.800;9.002;2023-02-28T05:38:39;47.35;40.52;60.70;;
186;Laerm;55473;48.800;9.002;2023-02-28T05:41:10;48.68;41.06;62.85;;
186;Laerm;55473;48.800;9.002;2023-02-28T05:43:37;47.36;39.96;62.47;;
186;Laerm;55473;48.800;9.002;2023-02-28T05:46:05;45.55;39.44;62.51;;
186;Laerm;55473;48.800;9.002;2023-02-28T05:48:34;47.47;40.16;59.17;;
186;Laerm;55473;48.800;9.002;2023-02-28T05:51:00;44.92;40.17;66.09;;
186;Laerm;55473;48.800;9.002;2023-02-28T05:53:26;43.47;38.02;55.26;;
186;Laerm;55473;48.800;9.002;2023-02-28T05:55:52;45.03;39.03;59.25;;
186;Laerm;55473;48.800;9.002;2023-02-28T05:58:18;44.28;39.52;57.45;;
186;Laerm;55473;48.800;9.002;2023-02-28T06:00:44;48.71;37.51;77.75;;
186;Laerm;55473;48.800;9.002;2023-02-28T06:03:11;49.94;39.88;78.48;;
186;Laerm;55473;48.800;9.002;2023-02-28T06:05:37;47.69;40.07;58.33;;
186;Laerm;55473;48.800;9.002;2023-02-28T06:08:04;44.47;38.96;60.64;;
186;Laerm;55473;48.800;9.002;2023-02-28T06:10:34;44.40;38.78;58.18;;
186;Laerm;55473;48.800;9.002;2023-02-28T06:13:04;46.66;38.91;61.42;;
186;Laerm;55473;48.800;9.002;2023-02-28T06:15:30;45.17;38.86;59.30;;
186;Laerm;55473;48.800;9.002;2023-02-28T06:17:56;46.72;38.85;59.54;;
186;Laerm;55473;48.800;9.002;2023-02-28T06:20:24;44.23;38.32;61.96;;
186;Laerm;55473;48.800;9.002;2023-02-28T06:22:51;46.51;39.45;59.01;;
186;Laerm;55473;48.800;9.002;2023-02-28T06:25:20;46.77;39.47;67.95;;
186;Laerm;55473;48.800;9.002;2023-02-28T06:27:46;49.50;41.13;61.99;;
186;Laerm;55473;48.800;9.002;2023-02-28T06:30:12;48.07;40.84;63.43;;
186;Laerm;55473;48.800;9.002;2023-02-28T06:32:38;48.02;41.79;63.65;;
186;Laerm;55473;48.800;9.002;2023-02-28T06:35:05;48.86;44.27;60.56;;
186;Laerm;55473;48.800;9.002;2023-02-28T06:37:32;50.01;43.23;67.41;;
186;Laerm;55473;48.800;9.002;2023-02-28T06:39:58;47.43;41.47;65.93;;
186;Laerm;55473;48.800;9.002;2023-02-28T06:42:25;49.53;42.70;66.60;;
186;Laerm;55473;48.800;9.002;2023-02-28T06:44:55;48.32;42.03;63.74;;
186;Laerm;55473;48.800;9.002;2023-02-28T06:47:21;49.59;40.74;67.97;;
186;Laerm;55473;48.800;9.002;2023-02-28T06:49:47;47.10;40.54;64.39;;
186;Laerm;55473;48.800;9.002;2023-02-28T06:52:14;46.13;39.06;62.14;;
186;Laerm;55473;48.800;9.002;2023-02-28T06:54:41;43.55;38.44;61.88;;
186;Laerm;55473;48.800;9.002;2023-02-28T06:57:07;43.61;38.25;56.32;;
186;Laerm;55473;48.800;9.002;2023-02-28T06:59:33;47.29;39.92;60.64;;
186;Laerm;55473;48.800;9.002;2023-02-28T07:02:01;46.13;39.49;55.32;;
186;Laerm;55473;48.800;9.002;2023-02-28T07:04:28;47.41;39.69;60.73;;
186;Laerm;55473;48.800;9.002;2023-02-28T07:06:55;45.56;40.39;59.21;;
186;Laerm;55473;48.800;9.002;2023-02-28T07:09:23;43.66;40.07;54.67;;
186;Laerm;55473;48.800;9.002;2023-02-28T07:11:48;43.41;40.13;53.32;;
186;Laerm;55473;48.800;9.002;2023-02-28T07:14:14;44.89;39.35;58.78;;
186;Laerm;55473;48.800;9.002;2023-02-28T07:16:40;44.15;39.23;60.27;;
186;Laerm;55473;48.800;9.002;2023-02-28T07:19:06;53.06;41.77;69.18;;
186;Laerm;55473;48.800;9.002;2023-02-28T07:21:32;44.49;40.22;57.77;;
186;Laerm;55473;48.800;9.002;2023-02-28T07:23:58;45.58;40.93;61.66;;
186;Laerm;55473;48.800;9.002;2023-02-28T07:26:24;44.32;38.92;55.61;;
186;Laerm;55473;48.800;9.002;2023-02-28T07:28:50;45.40;38.92;61.22;;
186;Laerm;55473;48.800;9.002;2023-02-28T07:31:17;45.78;37.97;61.51;;
186;Laerm;55473;48.800;9.002;2023-02-28T07:33:44;46.26;40.42;56.28;;
186;Laerm;55473;48.800;9.002;2023-02-28T07:36:14;45.81;38.88;61.70;;
186;Laerm;55473;48.800;9.002;2023-02-28T07:38:46;44.60;39.36;58.39;;
186;Laerm;55473;48.800;9.002;2023-02-28T07:41:18;43.69;39.71;52.56;;
186;Laerm;55473;48.800;9.002;2023-02-28T07:43:45;43.25;38.79;54.64;;
186;Laerm;55473;48.800;9.002;2023-02-28T07:46:14;47.80;40.21;61.01;;
186;Laerm;55473;48.800;9.002;2023-02-28T07:48:42;48.67;41.97;58.57;;
186;Laerm;55473;48.800;9.002;2023-02-28T07:51:08;48.83;40.11;64.20;;
186;Laerm;55473;48.800;9.002;2023-02-28T07:53:35;52.15;42.10;80.42;;
186;Laerm;55473;48.800;9.002;2023-02-28T07:56:02;51.23;45.09;61.89;;
186;Laerm;55473;48.800;9.002;2023-02-28T07:58:30;55.20;44.92;70.20;;
186;Laerm;55473;48.800;9.002;2023-02-28T08:00:57;50.99;40.09;68.96;;
186;Laerm;55473;48.800;9.002;2023-02-28T08:03:24;53.75;40.78;82.54;;
186;Laerm;55473;48.800;9.002;2023-02-28T08:05:50;50.54;39.98;71.42;;
186;Laerm;55473;48.800;9.002;2023-02-28T08:08:18;48.08;39.69;64.81;;
186;Laerm;55473;48.800;9.002;2023-02-28T08:10:44;47.33;39.28;73.89;;
186;Laerm;55473;48.800;9.002;2023-02-28T08:13:10;45.18;38.64;64.43;;
186;Laerm;55473;48.800;9.002;2023-02-28T08:15:36;47.06;38.54;66.89;;
186;Laerm;55473;48.800;9.002;2023-02-28T08:18:02;48.23;38.00;77.96;;
186;Laerm;55473;48.800;9.002;2023-02-28T08:20:28;51.34;38.64;77.79;;
186;Laerm;55473;48.800;9.002;2023-02-28T08:22:54;50.93;39.46;77.89;;
186;Laerm;55473;48.800;9.002;2023-02-28T08:25:20;46.57;37.78;56.87;;
186;Laerm;55473;48.800;9.002;2023-02-28T08:27:46;54.49;37.53;71.12;;
186;Laerm;55473;48.800;9.002;2023-02-28T08:30:14;45.92;39.42;60.09;;
186;Laerm;55473;48.800;9.002;2023-02-28T08:32:40;47.12;38.30;62.35;;
186;Laerm;55473;48.800;9.002;2023-02-28T08:35:07;44.90;38.49;56.46;;
186;Laerm;55473;48.800;9.002;2023-02-28T08:37:35;44.38;40.63;57.32;;
186;Laerm;55473;48.800;9.002;2023-02-28T08:40:01;42.40;38.83;52.30;;
186;Laerm;55473;48.800;9.002;2023-02-28T08:42:27;49.57;39.00;70.17;;
186;Laerm;55473;48.800;9.002;2023-02-28T08:44:53;48.89;39.37;68.90;;
186;Laerm;55473;48.800;9.002;2023-02-28T08:47:19;46.44;39.58;64.75;;
186;Laerm;55473;48.800;9.002;2023-02-28T08:49:45;47.36;38.13;69.09;;
186;Laerm;55473;48.800;9.002;2023-02-28T08:52:11;41.69;37.44;61.28;;
186;Laerm;55473;48.800;9.002;2023-02-28T08:54:37;43.26;37.27;64.28;;
186;Laerm;55473;48.800;9.002;2023-02-28T08:57:03;45.26;37.24;62.21;;
186;Laerm;55473;48.800;9.002;2023-02-28T08:59:29;50.03;38.71;65.22;;
186;Laerm;55473;48.800;9.002;2023-02-28T09:01:55;45.28;37.76;59.96;;
186;Laerm;55473;48.800;9.002;2023-02-28T09:04:22;44.41;37.65;62.07;;
186;Laerm;55473;48.800;9.002;2023-02-28T09:06:48;45.01;38.28;63.20;;
186;Laerm;55473;48.800;9.002;2023-02-28T09:09:15;48.35;39.28;64.74;;
186;Laerm;55473;48.800;9.002;2023-02-28T09:11:41;48.86;39.84;68.57;;
186;Laerm;55473;48.800;9.002;2023-02-28T09:14:08;51.40;45.00;64.89;;
186;Laerm;55473;48.800;9.002;2023-02-28T09:16:34;47.88;43.48;61.40;;
186;Laerm;55473;48.800;9.002;2023-02-28T09:19:01;46.18;40.11;61.84;;
186;Laerm;55473;48.800;9.002;2023-02-28T09:21:27;44.66;39.83;62.06;;
186;Laerm;55473;48.800;9.002;2023-02-28T09:23:53;41.98;38.39;55.31;;
186;Laerm;55473;48.800;9.002;2023-02-28T09:26:23;42.54;39.24;52.94;;
186;Laerm;55473;48.800;9.002;2023-02-28T09:28:51;42.94;37.35;55.91;;
186;Laerm;55473;48.800;9.002;2023-02-28T09:31:21;49.04;37.52;68.18;;
186;Laerm;55473;48.800;9.002;2023-02-28T09:33:49;48.67;39.36;62.02;;
186;Laerm;55473;48.800;9.002;2023-02-28T09:36:16;42.94;39.22;52.82;;
186;Laerm;55473;48.800;9.002;2023-02-28T09:38:42;42.36;38.24;58.27;;
186;Laerm;55473;48.800;9.002;2023-02-28T09:41:27;49.27;38.47;67.20;;
186;Laerm;55473;48.800;9.002;2023-02-28T09:44:00;46.56;39.81;66.46;;
186;Laerm;55473;48.800;9.002;2023-02-28T09:46:42;45.58;38.26;64.02;;
186;Laerm;55473;48.800;9.002;2023-02-28T09:49:20;45.70;39.41;63.19;;
186;Laerm;55473;48.800;9.002;2023-02-28T09:52:12;43.10;38.19;60.93;;
186;Laerm;55473;48.800;9.002;2023-02-28T09:54:39;45.23;38.74;61.04;;
186;Laerm;55473;48.800;9.002;2023-02-28T09:57:21;44.49;38.33;67.73;;
186;Laerm;55473;48.800;9.002;2023-02-28T10:05:52;50.29;40.00;64.36;;
186;Laerm;55473;48.800;9.002;2023-02-28T10:08:57;51.92;40.08;74.05;;
186;Laerm;55473;48.800;9.002;2023-02-28T10:11:37;49.23;40.48;64.71;;
186;Laerm;55473;48.800;9.002;2023-02-28T10:14:16;47.44;40.03;61.30;;
186;Laerm;55473;48.800;9.002;2023-02-28T10:16:56;48.20;39.79;66.25;;
186;Laerm;55473;48.800;9.002;2023-02-28T10:22:13;46.43;39.22;64.29;;
186;Laerm;55473;48.800;9.002;2023-02-28T10:24:51;54.01;41.59;65.00;;
186;Laerm;55473;48.800;9.002;2023-02-28T10:27:24;51.85;48.44;63.08;;
186;Laerm;55473;48.800;9.002;2023-02-28T10:29:55;50.98;47.91;62.39;;
186;Laerm;55473;48.800;9.002;2023-02-28T10:32:33;52.78;48.10;64.76;;
186;Laerm;55473;48.800;9.002;2023-02-28T10:37:40;51.74;48.32;61.23;;
186;Laerm;55473;48.800;9.002;2023-02-28T10:40:27;51.62;48.62;64.08;;
186;Laerm;55473;48.800;9.002;2023-02-28T10:43:07;51.46;48.26;58.91;;
186;Laerm;55473;48.800;9.002;2023-02-28T10:46:02;51.04;47.92;56.68;;
186;Laerm;55473;48.800;9.002;2023-02-28T10:51:15;50.91;47.89;63.71;;
186;Laerm;55473;48.800;9.002;2023-02-28T10:53:54;53.12;48.02;67.54;;
186;Laerm;55473;48.800;9.002;2023-02-28T10:56:24;52.70;48.15;64.13;;
186;Laerm;55473;48.800;9.002;2023-02-28T10:59:01;51.89;48.42;61.58;;
186;Laerm;55473;48.800;9.002;2023-02-28T11:01:43;53.55;48.46;65.93;;
186;Laerm;55473;48.800;9.002;2023-02-28T11:09:34;48.36;40.06;64.08;;
186;Laerm;55473;48.800;9.002;2023-02-28T11:12:07;47.08;39.38;64.56;;
186;Laerm;55473;48.800;9.002;2023-02-28T11:14:48;46.06;39.37;61.72;;
186;Laerm;55473;48.800;9.002;2023-02-28T11:17:28;48.85;39.37;61.16;;
186;Laerm;55473;48.800;9.002;2023-02-28T11:20:18;47.40;37.16;67.54;;
186;Laerm;55473;48.800;9.002;2023-02-28T11:22:46;42.43;37.18;54.59;;
186;Laerm;55473;48.800;9.002;2023-02-28T11:25:25;46.59;39.39;65.29;;
186;Laerm;55473;48.800;9.002;2023-02-28T11:27:59;53.37;39.36;68.45;;
186;Laerm;55473;48.800;9.002;2023-02-28T11:30:41;53.12;38.68;69.10;;
186;Laerm;55473;48.800;9.002;2023-02-28T11:33:23;50.27;38.27;69.31;;
186;Laerm;55473;48.800;9.002;2023-02-28T11:35:57;47.21;40.02;60.87;;
186;Laerm;55473;48.800;9.002;2023-02-28T11:38:27;47.30;39.27;63.99;;
186;Laerm;55473;48.800;9.002;2023-02-28T11:46:59;48.56;40.02;62.72;;
186;Laerm;55473;48.800;9.002;2023-02-28T11:49:41;48.26;38.82;62.57;;
186;Laerm;55473;48.800;9.002;2023-02-28T11:52:55;46.54;38.37;63.51;;
186;Laerm;55473;48.800;9.002;2023-02-28T12:07:08;50.74;40.79;81.04;;
186;Laerm;55473;48.800;9.002;2023-02-28T12:10:25;49.91;40.78;70.12;;
186;Laerm;55473;48.800;9.002;2023-02-28T12:13:29;49.85;38.66;73.35;;
186;Laerm;55473;48.800;9.002;2023-02-28T12:18:42;49.11;40.80;65.25;;
186;Laerm;55473;48.800;9.002;2023-02-28T12:22:19;48.01;38.60;62.45;;
186;Laerm;55473;48.800;9.002;2023-02-28T12:27:41;47.51;38.87;62.19;;
186;Laerm;55473;48.800;9.002;2023-02-28T12:30:28;51.14;39.59;72.12;;
186;Laerm;55473;48.800;9.002;2023-02-28T12:33:24;50.59;41.20;64.38;;
186;Laerm;55473;48.800;9.002;2023-02-28T12:35:57;48.34;39.79;64.32;;
186;Laerm;55473;48.800;9.002;2023-02-28T12:41:12;47.55;38.98;62.12;;
186;Laerm;55473;48.800;9.002;2023-02-28T12:43:49;47.82;39.49;64.36;;
186;Laerm;55473;48.800;9.002;2023-02-28T12:46:46;45.03;39.57;55.80;;
186;Laerm;55473;48.800;9.002;2023-02-28T12:50:08;50.13;40.65;74.86;;
186;Laerm;55473;48.800;9.002;2023-02-28T12:56:21;46.61;38.24;63.56;;
186;Laerm;55473;48.800;9.002;2023-02-28T13:10:48;50.26;43.66;60.76;;
186;Laerm;55473;48.800;9.002;2023-02-28T13:13:29;52.76;47.50;71.96;;
186;Laerm;55473;48.800;9.002;2023-02-28T13:16:10;51.58;47.21;62.73;;
186;Laerm;55473;48.800;9.002;2023-02-28T13:18:45;51.20;39.78;62.45;;
186;Laerm;55473;48.800;9.002;2023-02-28T13:21:30;49.88;40.55;62.24;;
186;Laerm;55473;48.800;9.002;2023-02-28T13:24:01;50.00;39.94;71.28;;
186;Laerm;55473;48.800;9.002;2023-02-28T13:31:23;47.72;42.07;60.79;;
186;Laerm;55473;48.800;9.002;2023-02-28T13:36:29;45.18;41.04;58.88;;
186;Laerm;55473;48.800;9.002;2023-02-28T13:39:03;46.87;42.79;65.90;;
186;Laerm;55473;48.800;9.002;2023-02-28T13:41:48;46.76;42.11;63.04;;
186;Laerm;55473;48.800;9.002;2023-02-28T13:44:22;54.19;40.17;70.03;;
186;Laerm;55473;48.800;9.002;2023-02-28T13:49:27;43.82;39.15;55.13;;
186;Laerm;55473;48.800;9.002;2023-02-28T13:55:19;56.47;37.75;72.70;;
186;Laerm;55473;48.800;9.002;2023-02-28T13:58:27;43.31;37.58;57.36;;
186;Laerm;55473;48.800;9.002;2023-02-28T14:06:56;46.30;39.53;61.21;;
186;Laerm;55473;48.800;9.002;2023-02-28T14:09:35;45.30;37.82;61.02;;
186;Laerm;55473;48.800;9.002;2023-02-28T14:18:35;52.95;40.65;79.93;;
186;Laerm;55473;48.800;9.002;2023-02-28T14:27:36;49.53;39.41;78.66;;
186;Laerm;55473;48.800;9.002;2023-02-28T14:38:56;58.20;42.83;71.13;;
186;Laerm;55473;48.800;9.002;2023-02-28T14:41:37;56.95;52.86;71.64;;
186;Laerm;55473;48.800;9.002;2023-02-28T14:44:22;56.71;51.70;71.48;;
186;Laerm;55473;48.800;9.002;2023-02-28T14:46:57;56.59;50.72;67.45;;
186;Laerm;55473;48.800;9.002;2023-02-28T14:49:32;55.04;41.57;65.82;;
186;Laerm;55473;48.800;9.002;2023-02-28T14:52:20;55.90;50.15;68.49;;
186;Laerm;55473;48.800;9.002;2023-02-28T14:54:58;55.84;48.99;68.05;;
186;Laerm;55473;48.800;9.002;2023-02-28T14:57:40;55.14;42.03;69.07;;
186;Laerm;55473;48.800;9.002;2023-02-28T15:00:15;58.06;50.58;71.10;;
186;Laerm;55473;48.800;9.002;2023-02-28T15:02:43;56.33;50.80;67.45;;
186;Laerm;55473;48.800;9.002;2023-02-28T15:07:38;55.49;50.39;67.81;;
186;Laerm;55473;48.800;9.002;2023-02-28T15:10:21;55.73;41.61;67.42;;
186;Laerm;55473;48.800;9.002;2023-02-28T15:15:20;53.70;41.57;67.01;;
186;Laerm;55473;48.800;9.002;2023-02-28T15:17:51;57.85;42.34;72.01;;
186;Laerm;55473;48.800;9.002;2023-02-28T15:20:19;55.65;50.72;68.19;;
186;Laerm;55473;48.800;9.002;2023-02-28T15:22:50;56.47;50.50;74.37;;
186;Laerm;55473;48.800;9.002;2023-02-28T15:25:21;56.38;49.65;71.23;;
186;Laerm;55473;48.800;9.002;2023-02-28T15:27:55;55.21;49.09;68.26;;
186;Laerm;55473;48.800;9.002;2023-02-28T15:30:31;55.93;50.41;69.31;;
186;Laerm;55473;48.800;9.002;2023-02-28T15:33:25;57.48;51.16;72.56;;
186;Laerm;55473;48.800;9.002;2023-02-28T15:35:51;54.31;42.95;75.59;;
186;Laerm;55473;48.800;9.002;2023-02-28T15:38:26;57.21;44.72;73.65;;
186;Laerm;55473;48.800;9.002;2023-02-28T15:40:58;58.41;51.99;75.62;;
186;Laerm;55473;48.800;9.002;2023-02-28T15:46:04;58.13;45.29;80.43;;
186;Laerm;55473;48.800;9.002;2023-02-28T15:48:52;55.91;50.13;72.84;;
186;Laerm;55473;48.800;9.002;2023-02-28T15:53:57;55.74;40.27;76.68;;
186;Laerm;55473;48.800;9.002;2023-02-28T15:56:54;48.06;39.22;71.85;;
186;Laerm;55473;48.800;9.002;2023-02-28T15:59:25;46.77;38.84;64.57;;
186;Laerm;55473;48.800;9.002;2023-02-28T16:04:37;45.18;39.27;55.71;;
186;Laerm;55473;48.800;9.002;2023-02-28T16:07:19;45.99;39.07;67.38;;
186;Laerm;55473;48.800;9.002;2023-02-28T16:09:45;53.14;44.12;68.05;;
186;Laerm;55473;48.800;9.002;2023-02-28T16:12:12;51.69;47.10;63.18;;
186;Laerm;55473;48.800;9.002;2023-02-28T16:14:40;52.83;49.17;63.29;;
186;Laerm;55473;48.800;9.002;2023-02-28T16:17:16;53.58;49.11;60.99;;
186;Laerm;55473;48.800;9.002;2023-02-28T16:19:45;51.09;47.99;58.80;;
186;Laerm;55473;48.800;9.002;2023-02-28T16:22:10;50.50;47.78;62.47;;
186;Laerm;55473;48.800;9.002;2023-02-28T16:24:36;50.17;47.56;58.51;;
186;Laerm;55473;48.800;9.002;2023-02-28T16:27:04;51.66;47.86;70.20;;
186;Laerm;55473;48.800;9.002;2023-02-28T16:29:36;51.04;48.11;66.53;;
186;Laerm;55473;48.800;9.002;2023-02-28T16:32:05;50.18;47.81;57.32;;
186;Laerm;55473;48.800;9.002;2023-02-28T16:34:32;51.60;48.18;66.39;;
186;Laerm;55473;48.800;9.002;2023-02-28T16:36:58;52.23;48.08;63.09;;
186;Laerm;55473;48.800;9.002;2023-02-28T16:39:24;51.15;48.22;62.04;;
186;Laerm;55473;48.800;9.002;2023-02-28T16:41:51;50.59;48.10;59.26;;
186;Laerm;55473;48.800;9.002;2023-02-28T16:44:33;50.39;47.94;57.24;;
186;Laerm;55473;48.800;9.002;2023-02-28T16:47:03;50.80;47.95;57.27;;
186;Laerm;55473;48.800;9.002;2023-02-28T16:49:30;51.02;47.84;63.59;;
186;Laerm;55473;48.800;9.002;2023-02-28T16:51:55;50.20;47.68;54.12;;
186;Laerm;55473;48.800;9.002;2023-02-28T16:54:22;51.78;48.05;63.57;;
186;Laerm;55473;48.800;9.002;2023-02-28T16:56:48;52.84;49.54;61.85;;
186;Laerm;55473;48.800;9.002;2023-02-28T16:59:23;52.65;49.46;58.35;;
186;Laerm;55473;48.800;9.002;2023-02-28T17:01:51;52.93;49.44;56.55;;
186;Laerm;55473;48.800;9.002;2023-02-28T17:04:18;53.65;50.12;60.14;;
186;Laerm;55473;48.800;9.002;2023-02-28T17:06:44;51.60;48.28;57.72;;
186;Laerm;55473;48.800;9.002;2023-02-28T17:09:28;50.94;47.58;66.06;;
186;Laerm;55473;48.800;9.002;2023-02-28T17:11:54;50.46;47.96;61.77;;
186;Laerm;55473;48.800;9.002;2023-02-28T17:14:22;50.52;48.20;59.51;;
186;Laerm;55473;48.800;9.002;2023-02-28T17:16:49;51.16;48.01;58.46;;
186;Laerm;55473;48.800;9.002;2023-02-28T17:19:17;51.61;48.16;58.08;;
186;Laerm;55473;48.800;9.002;2023-02-28T17:21:44;53.44;48.02;75.23;;